sensor_id;sensor_type;location;lat;lon;timestamp;P1;durP1;ratioP1;P2;durP2;ratioP2
17145;SDS011;8688;54.444;18.444;2023-07-02T00:00:02;14.68;;;6.93;;
17145;SDS011;8688;54.444;18.444;2023-07-02T00:02:31;9.25;;;6.50;;
17145;SDS011;8688;54.444;18.444;2023-07-02T00:04:59;8.82;;;6.40;;
17145;SDS011;8688;54.444;18.444;2023-07-02T00:07:26;9.05;;;6.63;;
17145;SDS011;8688;54.444;18.444;2023-07-02T00:09:54;9.30;;;6.78;;
17145;SDS011;8688;54.444;18.444;2023-07-02T00:12:21;14.00;;;7.53;;
17145;SDS011;8688;54.444;18.444;2023-07-02T00:14:50;10.63;;;7.25;;
17145;SDS011;8688;54.444;18.444;2023-07-02T00:17:18;11.65;;;7.18;;
17145;SDS011;8688;54.444;18.444;2023-07-02T00:19:45;10.07;;;6.85;;
17145;SDS011;8688;54.444;18.444;2023-07-02T00:22:16;8.38;;;7.18;;
17145;SDS011;8688;54.444;18.444;2023-07-02T00:24:44;12.23;;;7.32;;
17145;SDS011;8688;54.444;18.444;2023-07-02T00:27:11;7.95;;;6.45;;
17145;SDS011;8688;54.444;18.444;2023-07-02T00:29:39;12.80;;;6.97;;
17145;SDS011;8688;54.444;18.444;2023-07-02T00:32:08;8.70;;;7.45;;
17145;SDS011;8688;54.444;18.444;2023-07-02T00:34:35;8.57;;;7.68;;
17145;SDS011;8688;54.444;18.444;2023-07-02T00:37:03;12.27;;;7.20;;
17145;SDS011;8688;54.444;18.444;2023-07-02T00:39:31;10.57;;;7.10;;
17145;SDS011;8688;54.444;18.444;2023-07-02T00:42:00;11.23;;;7.53;;
17145;SDS011;8688;54.444;18.444;2023-07-02T00:44:28;11.60;;;7.55;;
17145;SDS011;8688;54.444;18.444;2023-07-02T00:46:55;9.20;;;7.22;;
17145;SDS011;8688;54.444;18.444;2023-07-02T00:49:24;11.20;;;7.57;;
17145;SDS011;8688;54.444;18.444;2023-07-02T00:51:52;11.38;;;7.40;;
17145;SDS011;8688;54.444;18.444;2023-07-02T00:54:20;9.80;;;7.60;;
17145;SDS011;8688;54.444;18.444;2023-07-02T00:56:48;10.32;;;7.68;;
17145;SDS011;8688;54.444;18.444;2023-07-02T00:59:15;11.70;;;7.60;;
17145;SDS011;8688;54.444;18.444;2023-07-02T01:01:43;10.85;;;7.50;;
17145;SDS011;8688;54.444;18.444;2023-07-02T01:04:16;11.05;;;7.28;;
17145;SDS011;8688;54.444;18.444;2023-07-02T01:06:46;11.15;;;7.05;;
17145;SDS011;8688;54.444;18.444;2023-07-02T01:09:15;8.88;;;7.25;;
17145;SDS011;8688;54.444;18.444;2023-07-02T01:11:44;7.82;;;7.07;;
17145;SDS011;8688;54.444;18.444;2023-07-02T01:14:17;10.90;;;7.07;;
17145;SDS011;8688;54.444;18.444;2023-07-02T01:16:48;7.53;;;6.75;;
17145;SDS011;8688;54.444;18.444;2023-07-02T01:19:18;8.23;;;6.55;;
17145;SDS011;8688;54.444;18.444;2023-07-02T01:21:49;9.48;;;6.85;;
17145;SDS011;8688;54.444;18.444;2023-07-02T01:24:17;9.85;;;6.93;;
17145;SDS011;8688;54.444;18.444;2023-07-02T01:26:46;9.05;;;6.68;;
17145;SDS011;8688;54.444;18.444;2023-07-02T01:29:14;9.05;;;6.78;;
17145;SDS011;8688;54.444;18.444;2023-07-02T01:31:42;13.63;;;6.47;;
17145;SDS011;8688;54.444;18.444;2023-07-02T01:34:10;10.55;;;6.88;;
17145;SDS011;8688;54.444;18.444;2023-07-02T01:36:38;8.90;;;6.38;;
17145;SDS011;8688;54.444;18.444;2023-07-02T01:39:07;10.25;;;7.22;;
17145;SDS011;8688;54.444;18.444;2023-07-02T01:41:37;8.25;;;6.53;;
17145;SDS011;8688;54.444;18.444;2023-07-02T01:44:12;7.43;;;6.28;;
17145;SDS011;8688;54.444;18.444;2023-07-02T01:46:39;8.60;;;6.30;;
17145;SDS011;8688;54.444;18.444;2023-07-02T01:49:07;8.40;;;6.93;;
17145;SDS011;8688;54.444;18.444;2023-07-02T01:51:34;7.30;;;5.90;;
17145;SDS011;8688;54.444;18.444;2023-07-02T01:54:03;7.40;;;6.18;;
17145;SDS011;8688;54.444;18.444;2023-07-02T01:56:32;8.45;;;6.20;;
17145;SDS011;8688;54.444;18.444;2023-07-02T01:59:03;9.20;;;6.50;;
17145;SDS011;8688;54.444;18.444;2023-07-02T02:01:30;9.43;;;6.60;;
17145;SDS011;8688;54.444;18.444;2023-07-02T02:03:58;7.47;;;6.70;;
17145;SDS011;8688;54.444;18.444;2023-07-02T02:06:25;7.75;;;6.22;;
17145;SDS011;8688;54.444;18.444;2023-07-02T02:08:53;8.48;;;6.60;;
17145;SDS011;8688;54.444;18.444;2023-07-02T02:11:20;7.05;;;5.95;;
17145;SDS011;8688;54.444;18.444;2023-07-02T02:13:49;8.38;;;6.00;;
17145;SDS011;8688;54.444;18.444;2023-07-02T02:16:16;7.72;;;5.85;;
17145;SDS011;8688;54.444;18.444;2023-07-02T02:18:44;7.43;;;6.05;;
17145;SDS011;8688;54.444;18.444;2023-07-02T02:21:17;7.28;;;6.03;;
17145;SDS011;8688;54.444;18.444;2023-07-02T02:23:44;6.70;;;6.03;;
17145;SDS011;8688;54.444;18.444;2023-07-02T02:26:12;7.75;;;6.10;;
17145;SDS011;8688;54.444;18.444;2023-07-02T02:28:39;8.13;;;6.00;;
17145;SDS011;8688;54.444;18.444;2023-07-02T02:31:10;8.07;;;6.25;;
17145;SDS011;8688;54.444;18.444;2023-07-02T02:33:37;7.78;;;6.10;;
17145;SDS011;8688;54.444;18.444;2023-07-02T02:36:05;8.10;;;5.70;;
17145;SDS011;8688;54.444;18.444;2023-07-02T02:38:33;8.43;;;5.40;;
17145;SDS011;8688;54.444;18.444;2023-07-02T02:41:02;6.65;;;5.10;;
17145;SDS011;8688;54.444;18.444;2023-07-02T02:43:29;6.68;;;5.25;;
17145;SDS011;8688;54.444;18.444;2023-07-02T02:45:57;6.32;;;5.50;;
17145;SDS011;8688;54.444;18.444;2023-07-02T02:48:26;8.48;;;5.07;;
17145;SDS011;8688;54.444;18.444;2023-07-02T02:50:53;8.05;;;5.00;;
17145;SDS011;8688;54.444;18.444;2023-07-02T02:53:21;6.15;;;5.05;;
17145;SDS011;8688;54.444;18.444;2023-07-02T02:55:48;6.30;;;5.13;;
17145;SDS011;8688;54.444;18.444;2023-07-02T02:58:16;6.75;;;4.82;;
17145;SDS011;8688;54.444;18.444;2023-07-02T03:00:43;7.88;;;4.35;;
17145;SDS011;8688;54.444;18.444;2023-07-02T03:03:11;5.93;;;4.63;;
17145;SDS011;8688;54.444;18.444;2023-07-02T03:05:41;7.93;;;4.93;;
17145;SDS011;8688;54.444;18.444;2023-07-02T03:08:09;5.75;;;4.70;;
17145;SDS011;8688;54.444;18.444;2023-07-02T03:10:37;5.57;;;4.28;;
17145;SDS011;8688;54.444;18.444;2023-07-02T03:13:04;4.50;;;3.88;;
17145;SDS011;8688;54.444;18.444;2023-07-02T03:15:31;4.35;;;3.95;;
17145;SDS011;8688;54.444;18.444;2023-07-02T03:17:59;4.85;;;4.25;;
17145;SDS011;8688;54.444;18.444;2023-07-02T03:20:26;5.03;;;4.03;;
17145;SDS011;8688;54.444;18.444;2023-07-02T03:22:55;4.20;;;3.80;;
17145;SDS011;8688;54.444;18.444;2023-07-02T03:25:23;4.55;;;4.15;;
17145;SDS011;8688;54.444;18.444;2023-07-02T03:27:50;3.78;;;3.47;;
17145;SDS011;8688;54.444;18.444;2023-07-02T03:30:17;4.90;;;4.07;;
17145;SDS011;8688;54.444;18.444;2023-07-02T03:32:45;6.30;;;4.10;;
17145;SDS011;8688;54.444;18.444;2023-07-02T03:35:13;4.60;;;3.50;;
17145;SDS011;8688;54.444;18.444;2023-07-02T03:37:41;5.30;;;3.95;;
17145;SDS011;8688;54.444;18.444;2023-07-02T03:40:11;3.92;;;3.53;;
17145;SDS011;8688;54.444;18.444;2023-07-02T03:42:38;5.43;;;4.00;;
17145;SDS011;8688;54.444;18.444;2023-07-02T03:45:06;4.15;;;3.70;;
17145;SDS011;8688;54.444;18.444;2023-07-02T03:47:34;4.13;;;3.30;;
17145;SDS011;8688;54.444;18.444;2023-07-02T03:50:02;5.88;;;3.70;;
17145;SDS011;8688;54.444;18.444;2023-07-02T03:52:30;3.83;;;3.25;;
17145;SDS011;8688;54.444;18.444;2023-07-02T03:54:57;3.63;;;3.33;;
17145;SDS011;8688;54.444;18.444;2023-07-02T03:57:26;4.13;;;3.30;;
17145;SDS011;8688;54.444;18.444;2023-07-02T03:59:54;5.43;;;3.13;;
17145;SDS011;8688;54.444;18.444;2023-07-02T04:02:21;3.95;;;3.20;;
17145;SDS011;8688;54.444;18.444;2023-07-02T04:04:49;4.93;;;2.92;;
17145;SDS011;8688;54.444;18.444;2023-07-02T04:07:16;4.68;;;3.28;;
17145;SDS011;8688;54.444;18.444;2023-07-02T04:09:44;2.97;;;2.67;;
17145;SDS011;8688;54.444;18.444;2023-07-02T04:12:14;3.30;;;2.90;;
17145;SDS011;8688;54.444;18.444;2023-07-02T04:14:45;2.95;;;2.67;;
17145;SDS011;8688;54.444;18.444;2023-07-02T04:17:12;3.28;;;2.80;;
17145;SDS011;8688;54.444;18.444;2023-07-02T04:19:40;5.45;;;2.50;;
17145;SDS011;8688;54.444;18.444;2023-07-02T04:22:07;3.15;;;2.80;;
17145;SDS011;8688;54.444;18.444;2023-07-02T04:24:35;3.30;;;2.60;;
17145;SDS011;8688;54.444;18.444;2023-07-02T04:27:02;3.13;;;2.83;;
17145;SDS011;8688;54.444;18.444;2023-07-02T04:29:30;4.90;;;2.85;;
17145;SDS011;8688;54.444;18.444;2023-07-02T04:31:59;2.97;;;2.72;;
17145;SDS011;8688;54.444;18.444;2023-07-02T04:34:27;3.45;;;3.15;;
17145;SDS011;8688;54.444;18.444;2023-07-02T04:36:55;4.13;;;3.10;;
17145;SDS011;8688;54.444;18.444;2023-07-02T04:39:22;4.85;;;2.70;;
17145;SDS011;8688;54.444;18.444;2023-07-02T04:41:50;2.97;;;2.55;;
17145;SDS011;8688;54.444;18.444;2023-07-02T04:44:17;3.28;;;2.97;;
17145;SDS011;8688;54.444;18.444;2023-07-02T04:46:55;3.38;;;2.50;;
17145;SDS011;8688;54.444;18.444;2023-07-02T04:49:24;2.80;;;2.53;;
17145;SDS011;8688;54.444;18.444;2023-07-02T04:51:52;2.97;;;2.67;;
17145;SDS011;8688;54.444;18.444;2023-07-02T04:54:20;4.35;;;2.80;;
17145;SDS011;8688;54.444;18.444;2023-07-02T04:56:48;3.25;;;2.95;;
17145;SDS011;8688;54.444;18.444;2023-07-02T04:59:15;4.53;;;2.63;;
17145;SDS011;8688;54.444;18.444;2023-07-02T05:01:43;3.47;;;2.83;;
17145;SDS011;8688;54.444;18.444;2023-07-02T05:04:11;3.45;;;2.80;;
17145;SDS011;8688;54.444;18.444;2023-07-02T05:06:40;2.65;;;2.20;;
17145;SDS011;8688;54.444;18.444;2023-07-02T05:09:07;3.38;;;2.70;;
17145;SDS011;8688;54.444;18.444;2023-07-02T05:11:35;3.35;;;2.40;;
17145;SDS011;8688;54.444;18.444;2023-07-02T05:14:02;2.60;;;2.40;;
17145;SDS011;8688;54.444;18.444;2023-07-02T05:16:30;3.78;;;2.53;;
17145;SDS011;8688;54.444;18.444;2023-07-02T05:18:57;2.53;;;2.33;;
17145;SDS011;8688;54.444;18.444;2023-07-02T05:21:25;2.50;;;2.20;;
17145;SDS011;8688;54.444;18.444;2023-07-02T05:23:54;2.67;;;2.20;;
17145;SDS011;8688;54.444;18.444;2023-07-02T05:26:21;2.00;;;1.80;;
17145;SDS011;8688;54.444;18.444;2023-07-02T05:28:48;1.73;;;1.63;;
17145;SDS011;8688;54.444;18.444;2023-07-02T05:31:16;2.08;;;1.88;;
17145;SDS011;8688;54.444;18.444;2023-07-02T05:33:43;1.65;;;1.48;;
17145;SDS011;8688;54.444;18.444;2023-07-02T05:36:11;2.70;;;1.88;;
17145;SDS011;8688;54.444;18.444;2023-07-02T05:38:39;2.45;;;1.95;;
17145;SDS011;8688;54.444;18.444;2023-07-02T05:41:08;1.98;;;1.77;;
17145;SDS011;8688;54.444;18.444;2023-07-02T05:43:35;2.92;;;1.60;;
17145;SDS011;8688;54.444;18.444;2023-07-02T05:46:02;1.67;;;1.55;;
17145;SDS011;8688;54.444;18.444;2023-07-02T05:48:30;3.58;;;1.70;;
17145;SDS011;8688;54.444;18.444;2023-07-02T05:50:57;2.78;;;1.60;;
17145;SDS011;8688;54.444;18.444;2023-07-02T05:53:25;2.25;;;1.63;;
17145;SDS011;8688;54.444;18.444;2023-07-02T05:55:52;1.85;;;1.38;;
17145;SDS011;8688;54.444;18.444;2023-07-02T05:58:22;1.77;;;1.42;;
17145;SDS011;8688;54.444;18.444;2023-07-02T06:00:52;1.75;;;1.55;;
17145;SDS011;8688;54.444;18.444;2023-07-02T06:03:21;2.63;;;1.65;;
17145;SDS011;8688;54.444;18.444;2023-07-02T06:05:48;1.52;;;1.42;;
17145;SDS011;8688;54.444;18.444;2023-07-02T06:08:17;2.05;;;1.60;;
17145;SDS011;8688;54.444;18.444;2023-07-02T06:10:45;1.60;;;1.50;;
17145;SDS011;8688;54.444;18.444;2023-07-02T06:13:13;2.08;;;1.58;;
17145;SDS011;8688;54.444;18.444;2023-07-02T06:15:42;1.65;;;1.42;;
17145;SDS011;8688;54.444;18.444;2023-07-02T06:18:12;1.85;;;1.55;;
17145;SDS011;8688;54.444;18.444;2023-07-02T06:20:39;2.55;;;1.42;;
17145;SDS011;8688;54.444;18.444;2023-07-02T06:23:07;2.20;;;1.92;;
17145;SDS011;8688;54.444;18.444;2023-07-02T06:25:34;2.22;;;1.65;;
17145;SDS011;8688;54.444;18.444;2023-07-02T06:28:02;1.70;;;1.60;;
17145;SDS011;8688;54.444;18.444;2023-07-02T06:30:29;2.13;;;1.55;;
17145;SDS011;8688;54.444;18.444;2023-07-02T06:32:59;1.80;;;1.50;;
17145;SDS011;8688;54.444;18.444;2023-07-02T06:35:29;2.42;;;1.83;;
17145;SDS011;8688;54.444;18.444;2023-07-02T06:37:57;1.92;;;1.70;;
17145;SDS011;8688;54.444;18.444;2023-07-02T06:40:25;1.63;;;1.52;;
17145;SDS011;8688;54.444;18.444;2023-07-02T06:42:52;2.65;;;1.63;;
17145;SDS011;8688;54.444;18.444;2023-07-02T06:45:20;1.95;;;1.70;;
17145;SDS011;8688;54.444;18.444;2023-07-02T06:47:49;1.50;;;1.40;;
17145;SDS011;8688;54.444;18.444;2023-07-02T06:50:19;1.88;;;1.67;;
17145;SDS011;8688;54.444;18.444;2023-07-02T06:52:48;2.13;;;1.50;;
17145;SDS011;8688;54.444;18.444;2023-07-02T06:55:15;1.35;;;1.25;;
17145;SDS011;8688;54.444;18.444;2023-07-02T06:57:43;1.50;;;1.40;;
17145;SDS011;8688;54.444;18.444;2023-07-02T07:00:11;1.55;;;1.10;;
17145;SDS011;8688;54.444;18.444;2023-07-02T07:02:40;2.08;;;1.02;;
17145;SDS011;8688;54.444;18.444;2023-07-02T07:05:08;3.50;;;1.55;;
17145;SDS011;8688;54.444;18.444;2023-07-02T07:07:37;9.32;;;1.92;;
17145;SDS011;8688;54.444;18.444;2023-07-02T07:10:05;5.15;;;1.38;;
17145;SDS011;8688;54.444;18.444;2023-07-02T07:12:33;3.75;;;1.63;;
17145;SDS011;8688;54.444;18.444;2023-07-02T07:15:01;5.47;;;1.70;;
17145;SDS011;8688;54.444;18.444;2023-07-02T07:17:29;3.97;;;1.45;;
17145;SDS011;8688;54.444;18.444;2023-07-02T07:19:56;3.15;;;1.80;;
17145;SDS011;8688;54.444;18.444;2023-07-02T07:22:23;4.88;;;1.73;;
17145;SDS011;8688;54.444;18.444;2023-07-02T07:24:52;4.22;;;1.80;;
17145;SDS011;8688;54.444;18.444;2023-07-02T07:27:20;3.50;;;1.77;;
17145;SDS011;8688;54.444;18.444;2023-07-02T07:29:47;4.85;;;2.40;;
17145;SDS011;8688;54.444;18.444;2023-07-02T07:32:14;4.90;;;2.83;;
17145;SDS011;8688;54.444;18.444;2023-07-02T07:34:42;3.60;;;2.17;;
17145;SDS011;8688;54.444;18.444;2023-07-02T07:37:10;3.45;;;2.10;;
17145;SDS011;8688;54.444;18.444;2023-07-02T07:39:37;6.82;;;2.70;;
17145;SDS011;8688;54.444;18.444;2023-07-02T07:42:06;4.40;;;2.15;;
17145;SDS011;8688;54.444;18.444;2023-07-02T07:44:34;5.50;;;2.40;;
17145;SDS011;8688;54.444;18.444;2023-07-02T07:47:01;3.17;;;2.22;;
17145;SDS011;8688;54.444;18.444;2023-07-02T07:49:29;4.47;;;2.30;;
17145;SDS011;8688;54.444;18.444;2023-07-02T07:51:56;3.85;;;2.45;;
17145;SDS011;8688;54.444;18.444;2023-07-02T07:54:24;2.78;;;1.80;;
17145;SDS011;8688;54.444;18.444;2023-07-02T07:56:51;2.50;;;2.08;;
17145;SDS011;8688;54.444;18.444;2023-07-02T07:59:20;5.53;;;2.38;;
17145;SDS011;8688;54.444;18.444;2023-07-02T08:01:47;5.13;;;2.17;;
17145;SDS011;8688;54.444;18.444;2023-07-02T08:04:15;4.47;;;2.78;;
17145;SDS011;8688;54.444;18.444;2023-07-02T08:06:44;3.42;;;2.20;;
17145;SDS011;8688;54.444;18.444;2023-07-02T08:09:11;4.00;;;2.00;;
17145;SDS011;8688;54.444;18.444;2023-07-02T08:11:39;4.35;;;2.78;;
17145;SDS011;8688;54.444;18.444;2023-07-02T08:14:08;6.93;;;2.10;;
17145;SDS011;8688;54.444;18.444;2023-07-02T08:16:37;6.05;;;2.22;;
17145;SDS011;8688;54.444;18.444;2023-07-02T08:19:04;3.95;;;2.63;;
17145;SDS011;8688;54.444;18.444;2023-07-02T08:21:32;4.70;;;2.10;;
17145;SDS011;8688;54.444;18.444;2023-07-02T08:23:59;6.10;;;2.30;;
17145;SDS011;8688;54.444;18.444;2023-07-02T08:26:27;5.55;;;2.67;;
17145;SDS011;8688;54.444;18.444;2023-07-02T08:28:55;6.13;;;3.15;;
17145;SDS011;8688;54.444;18.444;2023-07-02T08:31:22;5.68;;;2.45;;
17145;SDS011;8688;54.444;18.444;2023-07-02T08:33:51;6.30;;;2.90;;
17145;SDS011;8688;54.444;18.444;2023-07-02T08:36:19;5.18;;;2.63;;
17145;SDS011;8688;54.444;18.444;2023-07-02T08:38:47;3.47;;;2.30;;
17145;SDS011;8688;54.444;18.444;2023-07-02T08:41:16;3.30;;;2.50;;
17145;SDS011;8688;54.444;18.444;2023-07-02T08:43:44;3.85;;;2.20;;
17145;SDS011;8688;54.444;18.444;2023-07-02T08:46:14;6.03;;;2.10;;
17145;SDS011;8688;54.444;18.444;2023-07-02T08:48:42;5.20;;;2.53;;
17145;SDS011;8688;54.444;18.444;2023-07-02T08:51:11;4.80;;;2.08;;
17145;SDS011;8688;54.444;18.444;2023-07-02T08:53:38;9.95;;;2.40;;
17145;SDS011;8688;54.444;18.444;2023-07-02T08:56:06;6.22;;;2.45;;
17145;SDS011;8688;54.444;18.444;2023-07-02T08:58:34;4.38;;;2.25;;
17145;SDS011;8688;54.444;18.444;2023-07-02T09:01:05;4.00;;;2.00;;
17145;SDS011;8688;54.444;18.444;2023-07-02T09:03:34;5.28;;;2.35;;
17145;SDS011;8688;54.444;18.444;2023-07-02T09:06:03;7.55;;;2.30;;
17145;SDS011;8688;54.444;18.444;2023-07-02T09:08:32;5.57;;;2.10;;
17145;SDS011;8688;54.444;18.444;2023-07-02T09:11:07;7.95;;;2.22;;
17145;SDS011;8688;54.444;18.444;2023-07-02T09:13:42;3.75;;;2.40;;
17145;SDS011;8688;54.444;18.444;2023-07-02T09:16:20;6.43;;;2.25;;
17145;SDS011;8688;54.444;18.444;2023-07-02T09:18:55;11.73;;;2.28;;
17145;SDS011;8688;54.444;18.444;2023-07-02T09:21:25;4.55;;;2.25;;
17145;SDS011;8688;54.444;18.444;2023-07-02T09:23:57;5.63;;;2.00;;
17145;SDS011;8688;54.444;18.444;2023-07-02T09:26:26;3.67;;;1.92;;
17145;SDS011;8688;54.444;18.444;2023-07-02T09:29:00;4.80;;;2.55;;
17145;SDS011;8688;54.444;18.444;2023-07-02T09:31:30;5.20;;;2.25;;
17145;SDS011;8688;54.444;18.444;2023-07-02T09:34:10;6.80;;;2.40;;
17145;SDS011;8688;54.444;18.444;2023-07-02T09:36:42;6.78;;;2.35;;
17145;SDS011;8688;54.444;18.444;2023-07-02T09:39:19;5.10;;;2.22;;
17145;SDS011;8688;54.444;18.444;2023-07-02T09:41:48;4.53;;;2.40;;
17145;SDS011;8688;54.444;18.444;2023-07-02T09:44:17;7.47;;;2.30;;
17145;SDS011;8688;54.444;18.444;2023-07-02T09:46:48;4.60;;;2.28;;
17145;SDS011;8688;54.444;18.444;2023-07-02T09:49:22;5.95;;;2.30;;
17145;SDS011;8688;54.444;18.444;2023-07-02T09:51:51;6.88;;;2.47;;
17145;SDS011;8688;54.444;18.444;2023-07-02T09:54:21;5.68;;;2.47;;
17145;SDS011;8688;54.444;18.444;2023-07-02T09:56:49;5.00;;;2.20;;
17145;SDS011;8688;54.444;18.444;2023-07-02T09:59:17;6.22;;;2.42;;
17145;SDS011;8688;54.444;18.444;2023-07-02T10:01:45;5.55;;;2.40;;
17145;SDS011;8688;54.444;18.444;2023-07-02T10:04:13;3.92;;;2.45;;
17145;SDS011;8688;54.444;18.444;2023-07-02T10:06:46;9.07;;;2.33;;
17145;SDS011;8688;54.444;18.444;2023-07-02T10:09:15;5.18;;;2.47;;
17145;SDS011;8688;54.444;18.444;2023-07-02T10:11:44;4.07;;;2.60;;
17145;SDS011;8688;54.444;18.444;2023-07-02T10:14:12;4.38;;;2.33;;
17145;SDS011;8688;54.444;18.444;2023-07-02T10:16:50;8.02;;;2.22;;
17145;SDS011;8688;54.444;18.444;2023-07-02T10:19:18;4.32;;;2.33;;
17145;SDS011;8688;54.444;18.444;2023-07-02T10:21:46;6.93;;;2.45;;
17145;SDS011;8688;54.444;18.444;2023-07-02T10:24:27;5.35;;;2.30;;
17145;SDS011;8688;54.444;18.444;2023-07-02T10:26:56;4.70;;;2.65;;
17145;SDS011;8688;54.444;18.444;2023-07-02T10:29:25;6.90;;;2.70;;
17145;SDS011;8688;54.444;18.444;2023-07-02T10:31:54;7.47;;;2.60;;
17145;SDS011;8688;54.444;18.444;2023-07-02T10:34:31;5.40;;;2.60;;
17145;SDS011;8688;54.444;18.444;2023-07-02T10:37:00;5.13;;;2.53;;
17145;SDS011;8688;54.444;18.444;2023-07-02T10:39:28;8.82;;;2.83;;
17145;SDS011;8688;54.444;18.444;2023-07-02T10:42:07;6.07;;;2.40;;
17145;SDS011;8688;54.444;18.444;2023-07-02T10:44:46;5.75;;;2.72;;
17145;SDS011;8688;54.444;18.444;2023-07-02T10:47:16;6.35;;;2.58;;
17145;SDS011;8688;54.444;18.444;2023-07-02T10:49:43;9.85;;;2.38;;
17145;SDS011;8688;54.444;18.444;2023-07-02T10:52:11;12.70;;;2.78;;
17145;SDS011;8688;54.444;18.444;2023-07-02T10:54:39;4.80;;;2.15;;
17145;SDS011;8688;54.444;18.444;2023-07-02T10:57:09;6.80;;;2.35;;
17145;SDS011;8688;54.444;18.444;2023-07-02T10:59:38;7.60;;;1.92;;
17145;SDS011;8688;54.444;18.444;2023-07-02T11:02:05;7.22;;;2.40;;
17145;SDS011;8688;54.444;18.444;2023-07-02T11:04:33;7.30;;;2.45;;
17145;SDS011;8688;54.444;18.444;2023-07-02T11:07:02;6.43;;;2.58;;
17145;SDS011;8688;54.444;18.444;2023-07-02T11:09:30;7.57;;;2.72;;
17145;SDS011;8688;54.444;18.444;2023-07-02T11:11:58;8.10;;;2.90;;
17145;SDS011;8688;54.444;18.444;2023-07-02T11:14:29;5.38;;;2.80;;
17145;SDS011;8688;54.444;18.444;2023-07-02T11:16:57;9.63;;;2.60;;
17145;SDS011;8688;54.444;18.444;2023-07-02T11:19:27;3.78;;;2.25;;
17145;SDS011;8688;54.444;18.444;2023-07-02T11:21:55;5.55;;;3.00;;
17145;SDS011;8688;54.444;18.444;2023-07-02T11:24:28;6.15;;;2.75;;
17145;SDS011;8688;54.444;18.444;2023-07-02T11:26:58;6.30;;;2.58;;
17145;SDS011;8688;54.444;18.444;2023-07-02T11:29:29;6.93;;;3.20;;
17145;SDS011;8688;54.444;18.444;2023-07-02T11:32:04;11.48;;;2.75;;
17145;SDS011;8688;54.444;18.444;2023-07-02T11:34:38;4.82;;;2.50;;
17145;SDS011;8688;54.444;18.444;2023-07-02T11:37:06;8.15;;;3.00;;
17145;SDS011;8688;54.444;18.444;2023-07-02T11:39:33;6.78;;;3.30;;
17145;SDS011;8688;54.444;18.444;2023-07-02T11:42:02;8.38;;;3.03;;
17145;SDS011;8688;54.444;18.444;2023-07-02T11:44:34;8.10;;;3.10;;
17145;SDS011;8688;54.444;18.444;2023-07-02T11:47:05;11.38;;;3.05;;
17145;SDS011;8688;54.444;18.444;2023-07-02T11:49:34;7.32;;;2.60;;
17145;SDS011;8688;54.444;18.444;2023-07-02T11:52:02;10.45;;;3.10;;
17145;SDS011;8688;54.444;18.444;2023-07-02T11:54:30;7.13;;;3.22;;
17145;SDS011;8688;54.444;18.444;2023-07-02T11:57:01;6.30;;;3.00;;
17145;SDS011;8688;54.444;18.444;2023-07-02T11:59:38;7.22;;;3.13;;
17145;SDS011;8688;54.444;18.444;2023-07-02T12:02:07;6.93;;;3.17;;
17145;SDS011;8688;54.444;18.444;2023-07-02T12:04:35;14.50;;;3.20;;
17145;SDS011;8688;54.444;18.444;2023-07-02T12:07:03;7.90;;;3.60;;
17145;SDS011;8688;54.444;18.444;2023-07-02T12:09:31;5.53;;;3.00;;
17145;SDS011;8688;54.444;18.444;2023-07-02T12:11:59;9.93;;;3.80;;
17145;SDS011;8688;54.444;18.444;2023-07-02T12:14:26;13.27;;;3.30;;
17145;SDS011;8688;54.444;18.444;2023-07-02T12:16:55;8.55;;;3.40;;
17145;SDS011;8688;54.444;18.444;2023-07-02T12:19:23;9.13;;;3.60;;
17145;SDS011;8688;54.444;18.444;2023-07-02T12:21:51;7.95;;;3.28;;
17145;SDS011;8688;54.444;18.444;2023-07-02T12:24:20;9.63;;;4.25;;
17145;SDS011;8688;54.444;18.444;2023-07-02T12:26:49;12.43;;;3.53;;
17145;SDS011;8688;54.444;18.444;2023-07-02T12:29:17;7.88;;;3.45;;
17145;SDS011;8688;54.444;18.444;2023-07-02T12:31:44;9.80;;;3.60;;
17145;SDS011;8688;54.444;18.444;2023-07-02T12:34:13;13.38;;;3.45;;
17145;SDS011;8688;54.444;18.444;2023-07-02T12:36:40;9.18;;;3.47;;
17145;SDS011;8688;54.444;18.444;2023-07-02T12:39:08;13.32;;;3.67;;
17145;SDS011;8688;54.444;18.444;2023-07-02T12:41:36;9.45;;;3.22;;
17145;SDS011;8688;54.444;18.444;2023-07-02T12:44:05;6.70;;;2.90;;
17145;SDS011;8688;54.444;18.444;2023-07-02T12:46:34;6.78;;;3.17;;
17145;SDS011;8688;54.444;18.444;2023-07-02T12:49:02;12.57;;;3.67;;
17145;SDS011;8688;54.444;18.444;2023-07-02T12:51:31;8.88;;;3.30;;
17145;SDS011;8688;54.444;18.444;2023-07-02T12:54:01;9.88;;;3.58;;
17145;SDS011;8688;54.444;18.444;2023-07-02T12:56:31;7.38;;;3.15;;
17145;SDS011;8688;54.444;18.444;2023-07-02T12:59:01;9.00;;;3.47;;
17145;SDS011;8688;54.444;18.444;2023-07-02T13:01:30;10.55;;;3.13;;
17145;SDS011;8688;54.444;18.444;2023-07-02T13:04:00;9.15;;;3.47;;
17145;SDS011;8688;54.444;18.444;2023-07-02T13:06:33;6.85;;;3.25;;
17145;SDS011;8688;54.444;18.444;2023-07-02T13:09:05;6.75;;;3.20;;
17145;SDS011;8688;54.444;18.444;2023-07-02T13:11:34;10.40;;;3.40;;
17145;SDS011;8688;54.444;18.444;2023-07-02T13:14:03;9.93;;;3.53;;
17145;SDS011;8688;54.444;18.444;2023-07-02T13:16:32;10.40;;;3.05;;
17145;SDS011;8688;54.444;18.444;2023-07-02T13:19:01;9.18;;;3.78;;
17145;SDS011;8688;54.444;18.444;2023-07-02T13:21:31;6.90;;;3.20;;
17145;SDS011;8688;54.444;18.444;2023-07-02T13:23:59;10.63;;;3.63;;
17145;SDS011;8688;54.444;18.444;2023-07-02T13:26:27;10.35;;;3.13;;
17145;SDS011;8688;54.444;18.444;2023-07-02T13:28:56;5.97;;;3.50;;
17145;SDS011;8688;54.444;18.444;2023-07-02T13:31:24;14.45;;;3.35;;
17145;SDS011;8688;54.444;18.444;2023-07-02T13:33:53;8.20;;;3.08;;
17145;SDS011;8688;54.444;18.444;2023-07-02T13:36:21;6.70;;;3.20;;
17145;SDS011;8688;54.444;18.444;2023-07-02T13:38:51;12.02;;;3.85;;
17145;SDS011;8688;54.444;18.444;2023-07-02T13:41:19;9.77;;;3.28;;
17145;SDS011;8688;54.444;18.444;2023-07-02T13:43:52;7.93;;;3.42;;
17145;SDS011;8688;54.444;18.444;2023-07-02T13:46:20;6.93;;;3.85;;
17145;SDS011;8688;54.444;18.444;2023-07-02T13:48:49;6.30;;;3.53;;
17145;SDS011;8688;54.444;18.444;2023-07-02T13:51:18;8.18;;;3.40;;
17145;SDS011;8688;54.444;18.444;2023-07-02T13:53:46;10.88;;;3.65;;
17145;SDS011;8688;54.444;18.444;2023-07-02T13:56:17;6.60;;;3.05;;
17145;SDS011;8688;54.444;18.444;2023-07-02T13:59:02;8.30;;;3.22;;
17145;SDS011;8688;54.444;18.444;2023-07-02T14:01:31;9.25;;;3.53;;
17145;SDS011;8688;54.444;18.444;2023-07-02T14:04:01;8.23;;;3.35;;
17145;SDS011;8688;54.444;18.444;2023-07-02T14:06:30;8.95;;;3.65;;
17145;SDS011;8688;54.444;18.444;2023-07-02T14:08:58;5.70;;;3.10;;
17145;SDS011;8688;54.444;18.444;2023-07-02T14:11:28;11.20;;;3.47;;
17145;SDS011;8688;54.444;18.444;2023-07-02T14:13:58;6.72;;;3.20;;
17145;SDS011;8688;54.444;18.444;2023-07-02T14:16:28;9.25;;;3.90;;
17145;SDS011;8688;54.444;18.444;2023-07-02T14:18:59;7.90;;;3.55;;
17145;SDS011;8688;54.444;18.444;2023-07-02T14:21:28;6.22;;;3.70;;
17145;SDS011;8688;54.444;18.444;2023-07-02T14:23:56;8.15;;;3.60;;
17145;SDS011;8688;54.444;18.444;2023-07-02T14:26:25;8.27;;;3.97;;
17145;SDS011;8688;54.444;18.444;2023-07-02T14:28:55;7.15;;;4.28;;
17145;SDS011;8688;54.444;18.444;2023-07-02T14:31:25;11.43;;;4.47;;
17145;SDS011;8688;54.444;18.444;2023-07-02T14:33:55;8.38;;;3.88;;
17145;SDS011;8688;54.444;18.444;2023-07-02T14:36:24;7.97;;;3.95;;
17145;SDS011;8688;54.444;18.444;2023-07-02T14:38:54;8.77;;;4.15;;
17145;SDS011;8688;54.444;18.444;2023-07-02T14:41:23;9.77;;;4.40;;
17145;SDS011;8688;54.444;18.444;2023-07-02T14:43:52;11.23;;;4.72;;
17145;SDS011;8688;54.444;18.444;2023-07-02T14:46:20;11.48;;;4.75;;
17145;SDS011;8688;54.444;18.444;2023-07-02T14:48:50;8.43;;;4.20;;
17145;SDS011;8688;54.444;18.444;2023-07-02T14:51:18;8.30;;;4.30;;
17145;SDS011;8688;54.444;18.444;2023-07-02T14:53:46;11.70;;;4.28;;